Wetterstation Vordersexau
Wetterdaten: Woche 30.05.11 - 05.06.11 (KW22)
Datum Zeit Temp. A. Feuchte A. Luftdruck Regen Wind Richtung Taupunkt Windchill Windben
30.05.2011 00:00 14,1 C 65 % 1014,8 hPa 0,0 l/m 0,0 km/h SO 7,6 C 14,1 C 0,0 km/h
30.05.2011 01:00 13,1 C 69 % 1014,5 hPa 0,0 l/m 0,0 km/h NO 7,5 C 13,1 C 0,0 km/h
30.05.2011 02:00 11,9 C 72 % 1014,3 hPa 0,0 l/m 1,9 km/h S-SO 7,0 C 11,9 C 1,1 km/h
30.05.2011 03:00 11,3 C 74 % 1014,3 hPa 0,0 l/m 0,0 km/h O 6,8 C 11,3 C 0,0 km/h
30.05.2011 04:00 10,5 C 76 % 1013,6 hPa 0,0 l/m 0,0 km/h NO 6,5 C 10,5 C 0,0 km/h
30.05.2011 05:00 9,3 C 79 % 1013,7 hPa 0,0 l/m 0,0 km/h O-SO 5,8 C 9,3 C 0,0 km/h
30.05.2011 06:00 9,1 C 82 % 1013,8 hPa 0,0 l/m 0,0 km/h SO 6,2 C 9,1 C 0,0 km/h
30.05.2011 07:00 12,4 C 78 % 1013,8 hPa 0,0 l/m 0,0 km/h S 8,7 C 12,4 C 0,0 km/h
30.05.2011 08:00 25,3 C 45 % 1014,1 hPa 0,0 l/m 0,0 km/h W-SW 12,5 C 25,3 C 0,0 km/h
30.05.2011 09:00 28,3 C 38 % 1014,0 hPa 0,0 l/m 0,0 km/h W 12,6 C 28,3 C 0,0 km/h
30.05.2011 10:00 28,8 C 36 % 1013,7 hPa 0,0 l/m 0,0 km/h S 12,2 C 28,8 C 0,0 km/h
30.05.2011 11:00 31,4 C 31 % 1013,3 hPa 0,0 l/m 1,9 km/h NW 12,2 C 31,4 C 1,1 km/h
30.05.2011 12:00 30,3 C 30 % 1012,8 hPa 0,0 l/m 5,8 km/h W-NW 10,8 C 30,3 C 3,2 km/h
30.05.2011 13:00 31,4 C 28 % 1012,4 hPa 0,0 l/m 9,7 km/h NO 10,7 C 31,2 C 5,4 km/h
30.05.2011 14:00 32,1 C 27 % 1011,2 hPa 0,0 l/m 1,3 km/h SW 10,7 C 32,1 C 0,7 km/h
30.05.2011 15:00 35,1 C 24 % 1010,7 hPa 0,0 l/m 0,0 km/h W 11,5 C 35,1 C 0,0 km/h
30.05.2011 16:00 36,8 C 23 % 1010,1 hPa 0,0 l/m 0,0 km/h S-SW 12,2 C 36,8 C 0,0 km/h
30.05.2011 17:00 37,3 C 23 % 1009,5 hPa 0,0 l/m 5,2 km/h W-NW 12,6 C 37,3 C 2,9 km/h
30.05.2011 18:00 37,7 C 22 % 1008,9 hPa 0,0 l/m 0,0 km/h W 12,3 C 37,7 C 0,0 km/h
30.05.2011 19:00 31,6 C 28 % 1008,5 hPa 0,0 l/m 0,0 km/h NW 10,8 C 31,6 C 0,0 km/h
30.05.2011 20:00 26,1 C 43 % 1008,5 hPa 0,0 l/m 0,0 km/h O-SO 12,5 C 26,1 C 0,0 km/h
30.05.2011 21:00 21,3 C 57 % 1008,9 hPa 0,0 l/m 0,0 km/h S-SO 12,4 C 21,3 C 0,0 km/h
30.05.2011 22:00 19,4 C 61 % 1009,7 hPa 0,0 l/m 1,3 km/h N-NO 11,7 C 19,4 C 0,7 km/h
30.05.2011 23:00 18,1 C 66 % 1010,1 hPa 0,0 l/m 0,0 km/h NO 11,6 C 18,1 C 0,0 km/h
31.05.2011 00:00 18,6 C 64 % 1010,5 hPa 0,0 l/m 3,9 km/h NO 11,7 C 18,6 C 2,2 km/h
31.05.2011 01:00 22,1 C 47 % 1010,7 hPa 0,0 l/m 11,7 km/h W 10,3 C 20,5 C 6,5 km/h
31.05.2011 02:00 19,1 C 56 % 1010,9 hPa 0,0 l/m 1,9 km/h W 10,1 C 19,1 C 1,1 km/h
31.05.2011 03:00 20,1 C 55 % 1010,9 hPa 0,0 l/m 0,0 km/h W-SW 10,8 C 20,1 C 0,0 km/h
31.05.2011 04:00 20,4 C 54 % 1011,0 hPa 0,0 l/m 20,1 km/h S 10,8 C 16,7 C 11,2 km/h
31.05.2011 05:00 19,8 C 55 % 1011,2 hPa 0,0 l/m 14,3 km/h S 10,5 C 17,2 C 7,9 km/h
31.05.2011 06:00 19,4 C 56 % 1011,3 hPa 0,0 l/m 7,1 km/h S 10,4 C 19,1 C 4,0 km/h
31.05.2011 07:00 19,2 C 58 % 1011,3 hPa 0,0 l/m 9,7 km/h W-SW 10,7 C 17,9 C 5,4 km/h
31.05.2011 08:00 21,9 C 50 % 1011,6 hPa 0,0 l/m 5,8 km/h W-SW 11,0 C 21,9 C 3,2 km/h
31.05.2011 09:00 21,9 C 48 % 1011,9 hPa 0,0 l/m 5,8 km/h W-SW 10,4 C 21,9 C 3,2 km/h
31.05.2011 10:00 24,8 C 41 % 1012,0 hPa 0,0 l/m 19,4 km/h W 10,6 C 22,5 C 10,8 km/h
31.05.2011 11:00 23,3 C 45 % 1012,2 hPa 0,0 l/m 18,8 km/h W-SW 10,7 C 20,6 C 10,4 km/h
31.05.2011 12:00 23,6 C 49 % 1012,5 hPa 0,0 l/m 31,1 km/h W 12,2 C 19,7 C 17,3 km/h
31.05.2011 13:00 20,8 C 58 % 1013,1 hPa 0,0 l/m 14,9 km/h N-NO 12,2 C 18,2 C 8,3 km/h
31.05.2011 14:00 17,9 C 65 % 1013,5 hPa 0,0 l/m 0,0 km/h NW 11,2 C 17,9 C 0,0 km/h
31.05.2011 15:00 17,1 C 69 % 1013,8 hPa 0,0 l/m 0,0 km/h NO 11,4 C 17,1 C 0,0 km/h
31.05.2011 16:00 15,1 C 81 % 1013,8 hPa 0,7 l/m 9,7 km/h NW 11,9 C 13,4 C 5,4 km/h
31.05.2011 17:00 14,4 C 83 % 1014,4 hPa 2,1 l/m 5,8 km/h N-NW 11,5 C 14,4 C 3,2 km/h
31.05.2011 18:00 13,3 C 85 % 1015,6 hPa 1,4 l/m 1,3 km/h W-NW 10,8 C 13,3 C 0,7 km/h
31.05.2011 19:00 11,3 C 85 % 1017,5 hPa 1,8 l/m 1,3 km/h W 8,9 C 11,3 C 0,7 km/h
31.05.2011 20:00 10,3 C 86 % 1018,7 hPa 0,7 l/m 0,0 km/h W-SW 8,1 C 10,3 C 0,0 km/h
31.05.2011 21:00 9,8 C 86 % 1019,4 hPa 1,1 l/m 0,0 km/h W 7,6 C 9,8 C 0,0 km/h
31.05.2011 22:00 9,6 C 86 % 1020,4 hPa 0,0 l/m 0,0 km/h W-SW 7,4 C 9,6 C 0,0 km/h
31.05.2011 23:00 9,8 C 86 % 1020,5 hPa 0,4 l/m 8,4 km/h W-SW 7,6 C 8,4 C 4,7 km/h
01.06.2011 00:00 9,9 C 86 % 1021,0 hPa 0,4 l/m 0,0 km/h W-SW 7,7 C 9,9 C 0,0 km/h
01.06.2011 01:00 9,9 C 86 % 1020,8 hPa 0,7 l/m 2,6 km/h W-SW 7,7 C 9,9 C 1,4 km/h
01.06.2011 02:00 9,9 C 86 % 1020,5 hPa 0,4 l/m 0,0 km/h W-SW 7,7 C 9,9 C 0,0 km/h
01.06.2011 03:00 9,9 C 86 % 1020,4 hPa 1,1 l/m 0,0 km/h N-NO 7,7 C 9,9 C 0,0 km/h
01.06.2011 04:00 10,0 C 86 % 1020,2 hPa 1,1 l/m 0,0 km/h N-NO 7,8 C 10,0 C 0,0 km/h
01.06.2011 05:00 9,7 C 86 % 1020,5 hPa 0,0 l/m 0,0 km/h N-NO 7,5 C 9,7 C 0,0 km/h
01.06.2011 06:00 9,6 C 87 % 1020,6 hPa 0,4 l/m 7,8 km/h N 7,5 C 8,6 C 4,3 km/h
01.06.2011 07:00 10,1 C 87 % 1020,8 hPa 0,0 l/m 2,6 km/h N-NO 8,0 C 10,1 C 1,4 km/h
01.06.2011 08:00 10,3 C 87 % 1020,9 hPa 0,0 l/m 0,0 km/h N-NO 8,2 C 10,3 C 0,0 km/h
01.06.2011 09:00 10,8 C 87 % 1020,9 hPa 0,0 l/m 3,9 km/h N-NO 8,7 C 10,8 C 2,2 km/h
01.06.2011 10:00 11,4 C 85 % 1021,4 hPa 0,0 l/m 0,0 km/h N 9,0 C 11,4 C 0,0 km/h
01.06.2011 11:00 12,2 C 82 % 1021,9 hPa 0,0 l/m 14,3 km/h N-NO 9,2 C 8,1 C 7,9 km/h
01.06.2011 12:00 12,4 C 81 % 1022,2 hPa 0,0 l/m 5,8 km/h N 9,2 C 12,4 C 3,2 km/h
01.06.2011 13:00 12,9 C 79 % 1022,3 hPa 0,0 l/m 2,6 km/h NO 9,3 C 12,9 C 1,4 km/h
01.06.2011 14:00 12,6 C 79 % 1022,3 hPa 0,0 l/m 9,7 km/h N-NO 9,1 C 10,6 C 5,4 km/h
01.06.2011 15:00 12,5 C 79 % 1022,5 hPa 0,0 l/m 21,4 km/h N-NW 9,0 C 6,1 C 11,9 km/h
01.06.2011 16:00 12,6 C 79 % 1022,6 hPa 0,0 l/m 3,9 km/h N-NO 9,1 C 12,6 C 2,2 km/h
01.06.2011 17:00 12,7 C 78 % 1022,7 hPa 0,0 l/m 1,9 km/h N-NO 9,0 C 12,7 C 1,1 km/h
01.06.2011 18:00 11,9 C 80 % 1023,1 hPa 0,0 l/m 1,3 km/h N-NO 8,6 C 11,9 C 0,7 km/h
01.06.2011 19:00 11,3 C 82 % 1023,5 hPa 0,0 l/m 0,0 km/h N-NO 8,3 C 11,3 C 0,0 km/h
01.06.2011 20:00 11,3 C 82 % 1023,8 hPa 0,0 l/m 0,0 km/h N-NO 8,3 C 11,3 C 0,0 km/h
01.06.2011 21:00 11,3 C 81 % 1024,3 hPa 0,0 l/m 0,0 km/h N-NO 8,2 C 11,3 C 0,0 km/h
01.06.2011 22:00 11,0 C 82 % 1024,8 hPa 0,0 l/m 0,0 km/h NO 8,0 C 11,0 C 0,0 km/h
01.06.2011 23:00 11,2 C 80 % 1024,8 hPa 0,0 l/m 0,0 km/h O-NO 7,9 C 11,2 C 0,0 km/h
02.06.2011 00:00 10,8 C 80 % 1024,5 hPa 0,0 l/m 0,0 km/h N-NO 7,5 C 10,8 C 0,0 km/h
02.06.2011 01:00 9,3 C 84 % 1024,2 hPa 0,0 l/m 1,3 km/h N-NO 6,7 C 9,3 C 0,7 km/h
02.06.2011 02:00 9,9 C 85 % 1023,8 hPa 0,0 l/m 0,0 km/h N-NO 7,5 C 9,9 C 0,0 km/h
02.06.2011 03:00 10,5 C 83 % 1023,3 hPa 0,0 l/m 0,0 km/h NO 7,7 C 10,5 C 0,0 km/h
02.06.2011 04:00 11,1 C 79 % 1023,1 hPa 0,0 l/m 10,4 km/h N 7,6 C 8,6 C 5,8 km/h
02.06.2011 05:00 11,4 C 79 % 1023,2 hPa 0,0 l/m 2,6 km/h S-SO 7,9 C 11,4 C 1,4 km/h
02.06.2011 06:00 11,1 C 81 % 1023,4 hPa 0,0 l/m 0,0 km/h N-NO 8,0 C 11,1 C 0,0 km/h
02.06.2011 07:00 12,6 C 79 % 1023,7 hPa 0,0 l/m 3,2 km/h W-SW 9,1 C 12,6 C 1,8 km/h
02.06.2011 08:00 19,9 C 62 % 1023,8 hPa 0,0 l/m 2,6 km/h NO 12,4 C 19,9 C 1,4 km/h
02.06.2011 09:00 18,9 C 61 % 1023,8 hPa 0,0 l/m 0,0 km/h NO 11,2 C 18,9 C 0,0 km/h
02.06.2011 10:00 17,9 C 65 % 1023,7 hPa 0,0 l/m 6,5 km/h O-SO 11,2 C 17,9 C 3,6 km/h
02.06.2011 11:00 23,1 C 51 % 1023,7 hPa 0,0 l/m 22,0 km/h N 12,4 C 19,9 C 12,2 km/h
02.06.2011 12:00 23,0 C 53 % 1023,8 hPa 0,0 l/m 0,0 km/h W 12,9 C 23,0 C 0,0 km/h
02.06.2011 13:00 23,8 C 48 % 1023,3 hPa 0,0 l/m 0,0 km/h O-NO 12,1 C 23,8 C 0,0 km/h
02.06.2011 14:00 25,1 C 50 % 1022,7 hPa 0,0 l/m 8,4 km/h N-NO 13,9 C 24,6 C 4,7 km/h
02.06.2011 15:00 27,2 C 45 % 1022,5 hPa 0,0 l/m 20,7 km/h NO 14,2 C 25,5 C 11,5 km/h
02.06.2011 16:00 25,6 C 44 % 1022,2 hPa 0,0 l/m 7,1 km/h N-NO 12,4 C 25,4 C 4,0 km/h
02.06.2011 17:00 29,9 C 38 % 1022,0 hPa 0,0 l/m 0,6 km/h NO 14,0 C 29,9 C 0,4 km/h
02.06.2011 18:00 23,8 C 48 % 1021,8 hPa 0,0 l/m 0,0 km/h NO 12,1 C 23,8 C 0,0 km/h
02.06.2011 19:00 21,5 C 56 % 1022,3 hPa 0,0 l/m 0,0 km/h NO 12,3 C 21,5 C 0,0 km/h
02.06.2011 20:00 20,4 C 58 % 1022,3 hPa 0,0 l/m 0,0 km/h N-NO 11,9 C 20,4 C 0,0 km/h
02.06.2011 21:00 18,6 C 62 % 1022,6 hPa 0,0 l/m 0,0 km/h SO 11,2 C 18,6 C 0,0 km/h
02.06.2011 22:00 18,9 C 62 % 1023,1 hPa 0,0 l/m 0,0 km/h NO 11,5 C 18,9 C 0,0 km/h
02.06.2011 23:00 18,5 C 63 % 1023,1 hPa 0,0 l/m 0,0 km/h S 11,3 C 18,5 C 0,0 km/h
03.06.2011 00:00 16,9 C 66 % 1023,2 hPa 0,0 l/m 0,6 km/h N-NO 10,5 C 16,9 C 0,4 km/h
03.06.2011 01:00 16,3 C 67 % 1022,9 hPa 0,0 l/m 0,0 km/h NO 10,2 C 16,3 C 0,0 km/h
03.06.2011 02:00 15,7 C 68 % 1022,4 hPa 0,0 l/m 0,0 km/h N-NO 9,8 C 15,7 C 0,0 km/h
03.06.2011 03:00 14,3 C 72 % 1022,3 hPa 0,0 l/m 0,0 km/h SO 9,3 C 14,3 C 0,0 km/h
03.06.2011 04:00 12,6 C 77 % 1022,1 hPa 0,0 l/m 0,0 km/h SO 8,7 C 12,6 C 0,0 km/h
03.06.2011 05:00 12,6 C 77 % 1021,8 hPa 0,0 l/m 0,0 km/h NO 8,7 C 12,6 C 0,0 km/h
03.06.2011 06:00 13,5 C 75 % 1022,1 hPa 0,0 l/m 0,0 km/h SO 9,2 C 13,5 C 0,0 km/h
03.06.2011 07:00 15,4 C 70 % 1021,7 hPa 0,0 l/m 3,9 km/h N-NO 10,0 C 15,4 C 2,2 km/h
03.06.2011 08:00 17,9 C 68 % 1021,4 hPa 0,0 l/m 0,0 km/h NO 11,9 C 17,9 C 0,0 km/h
03.06.2011 09:00 23,9 C 53 % 1021,3 hPa 0,0 l/m 0,0 km/h NO 13,7 C 23,9 C 0,0 km/h
03.06.2011 10:00 27,2 C 42 % 1020,7 hPa 0,0 l/m 0,0 km/h N 13,2 C 27,2 C 0,0 km/h
03.06.2011 11:00 27,8 C 42 % 1020,1 hPa 0,0 l/m 0,0 km/h NO 13,7 C 27,8 C 0,0 km/h
03.06.2011 12:00 26,6 C 46 % 1019,5 hPa 0,0 l/m 8,4 km/h O-NO 14,0 C 26,2 C 4,7 km/h
03.06.2011 13:00 28,8 C 44 % 1019,2 hPa 0,0 l/m 0,0 km/h N 15,3 C 28,8 C 0,0 km/h
03.06.2011 14:00 29,2 C 42 % 1018,4 hPa 0,0 l/m 1,3 km/h NO 14,9 C 29,2 C 0,7 km/h
03.06.2011 15:00 32,8 C 36 % 1018,2 hPa 0,0 l/m 9,7 km/h N-NO 15,7 C 32,8 C 5,4 km/h
03.06.2011 16:00 34,4 C 32 % 1017,7 hPa 0,0 l/m 5,2 km/h O-NO 15,3 C 34,4 C 2,9 km/h
03.06.2011 17:00 30,5 C 37 % 1017,0 hPa 0,0 l/m 0,0 km/h O 14,1 C 30,5 C 0,0 km/h
03.06.2011 18:00 28,9 C 40 % 1017,0 hPa 0,0 l/m 0,0 km/h O-NO 13,9 C 28,9 C 0,0 km/h
03.06.2011 19:00 26,9 C 46 % 1016,9 hPa 0,0 l/m 0,0 km/h N-NO 14,3 C 26,9 C 0,0 km/h
03.06.2011 20:00 24,1 C 52 % 1017,0 hPa 0,0 l/m 0,0 km/h S-SO 13,6 C 24,1 C 0,0 km/h
03.06.2011 21:00 21,6 C 61 % 1017,1 hPa 0,0 l/m 0,6 km/h N-NO 13,7 C 21,6 C 0,4 km/h
03.06.2011 22:00 18,9 C 71 % 1017,3 hPa 0,0 l/m 0,0 km/h N-NO 13,5 C 18,9 C 0,0 km/h
03.06.2011 23:00 16,9 C 77 % 1017,2 hPa 0,0 l/m 0,0 km/h N 12,8 C 16,9 C 0,0 km/h
04.06.2011 00:00 16,6 C 80 % 1016,5 hPa 0,0 l/m 3,9 km/h N-NO 13,1 C 16,6 C 2,2 km/h
04.06.2011 01:00 16,1 C 82 % 1015,7 hPa 0,0 l/m 0,0 km/h SO 13,0 C 16,1 C 0,0 km/h
04.06.2011 02:00 15,1 C 83 % 1015,4 hPa 0,0 l/m 0,0 km/h O-SO 12,2 C 15,1 C 0,0 km/h
04.06.2011 03:00 14,1 C 84 % 1014,8 hPa 0,0 l/m 0,0 km/h O-SO 11,4 C 14,1 C 0,0 km/h
04.06.2011 04:00 13,1 C 85 % 1014,8 hPa 0,0 l/m 0,0 km/h S-SO 10,6 C 13,1 C 0,0 km/h
04.06.2011 05:00 13,8 C 85 % 1014,8 hPa 0,0 l/m 0,0 km/h S-SW 11,3 C 13,8 C 0,0 km/h
04.06.2011 06:00 14,3 C 86 % 1014,8 hPa 0,0 l/m 0,0 km/h S-SO 12,0 C 14,3 C 0,0 km/h
04.06.2011 07:00 17,1 C 85 % 1014,5 hPa 0,0 l/m 1,9 km/h N 14,6 C 17,1 C 1,1 km/h
04.06.2011 08:00 25,1 C 63 % 1014,4 hPa 0,0 l/m 0,0 km/h N-NW 17,5 C 25,1 C 0,0 km/h
04.06.2011 09:00 27,2 C 55 % 1014,1 hPa 0,0 l/m 0,0 km/h W-SW 17,4 C 27,2 C 0,0 km/h
04.06.2011 10:00 26,8 C 55 % 1014,1 hPa 0,0 l/m 5,8 km/h W-SW 17,0 C 26,8 C 3,2 km/h
04.06.2011 11:00 26,8 C 55 % 1013,9 hPa 0,0 l/m 7,1 km/h W 17,0 C 26,7 C 4,0 km/h
04.06.2011 12:00 28,5 C 50 % 1013,5 hPa 0,0 l/m 6,5 km/h W-NW 17,0 C 28,5 C 3,6 km/h
04.06.2011 13:00 28,9 C 48 % 1012,8 hPa 0,0 l/m 5,2 km/h W-NW 16,8 C 28,9 C 2,9 km/h
04.06.2011 14:00 29,5 C 50 % 1012,4 hPa 0,0 l/m 3,2 km/h N-NW 18,0 C 29,5 C 1,8 km/h
04.06.2011 15:00 27,5 C 52 % 1012,0 hPa 0,0 l/m 1,9 km/h S 16,7 C 27,5 C 1,1 km/h
04.06.2011 16:00 25,1 C 61 % 1010,8 hPa 0,0 l/m 0,0 km/h SW 17,0 C 25,1 C 0,0 km/h
04.06.2011 17:00 27,9 C 51 % 1010,2 hPa 0,0 l/m 0,0 km/h S 16,8 C 27,9 C 0,0 km/h
04.06.2011 18:00 23,4 C 71 % 1010,0 hPa 0,0 l/m 0,0 km/h SO 17,8 C 23,4 C 0,0 km/h
04.06.2011 19:00 22,8 C 76 % 1009,4 hPa 0,0 l/m 0,0 km/h SO 18,3 C 22,8 C 0,0 km/h
04.06.2011 20:00 20,7 C 80 % 1008,4 hPa 0,0 l/m 0,0 km/h O-NO 17,1 C 20,7 C 0,0 km/h
04.06.2011 21:00 18,9 C 84 % 1009,2 hPa 0,0 l/m 0,0 km/h O 16,1 C 18,9 C 0,0 km/h
04.06.2011 22:00 18,3 C 85 % 1009,6 hPa 0,0 l/m 0,0 km/h SO 15,7 C 18,3 C 0,0 km/h
04.06.2011 23:00 17,3 C 85 % 1008,9 hPa 0,0 l/m 0,0 km/h SO 14,8 C 17,3 C 0,0 km/h
05.06.2011 00:00 17,2 C 85 % 1009,0 hPa 0,0 l/m 3,2 km/h SO 14,7 C 17,2 C 1,8 km/h
05.06.2011 01:00 17,6 C 84 % 1009,7 hPa 0,0 l/m 1,9 km/h SW 14,9 C 17,6 C 1,1 km/h
05.06.2011 02:00 18,7 C 72 % 1009,7 hPa 0,0 l/m 22,0 km/h S-SW 13,5 C 14,1 C 12,2 km/h
05.06.2011 03:00 17,9 C 73 % 1009,2 hPa 0,0 l/m 0,0 km/h NO 13,0 C 17,9 C 0,0 km/h
05.06.2011 04:00 15,3 C 80 % 1008,5 hPa 0,0 l/m 0,0 km/h W-NW 11,9 C 15,3 C 0,0 km/h
05.06.2011 05:00 13,3 C 85 % 1008,6 hPa 0,0 l/m 0,0 km/h NO 10,8 C 13,3 C 0,0 km/h
05.06.2011 06:00 14,1 C 85 % 1009,2 hPa 0,0 l/m 0,0 km/h O-NO 11,6 C 14,1 C 0,0 km/h
05.06.2011 07:00 16,4 C 83 % 1009,1 hPa 0,0 l/m 0,0 km/h SO 13,5 C 16,4 C 0,0 km/h
05.06.2011 08:00 25,3 C 58 % 1009,0 hPa 0,0 l/m 0,0 km/h NW 16,4 C 25,3 C 0,0 km/h
05.06.2011 09:00 25,4 C 56 % 1008,9 hPa 0,0 l/m 0,0 km/h W 16,0 C 25,4 C 0,0 km/h
05.06.2011 10:00 28,9 C 47 % 1008,5 hPa 0,0 l/m 1,9 km/h W-SW 16,4 C 28,9 C 1,1 km/h
05.06.2011 11:00 28,3 C 46 % 1008,3 hPa 0,0 l/m 6,5 km/h W 15,6 C 28,3 C 3,6 km/h
05.06.2011 12:00 27,8 C 47 % 1007,7 hPa 0,0 l/m 14,9 km/h N-NO 15,4 C 26,7 C 8,3 km/h
05.06.2011 13:00 28,5 C 45 % 1006,8 hPa 0,0 l/m 5,2 km/h S-SW 15,4 C 28,5 C 2,9 km/h
05.06.2011 14:00 26,4 C 47 % 1006,2 hPa 0,0 l/m 10,4 km/h SO 14,2 C 25,6 C 5,8 km/h
05.06.2011 15:00 32,3 C 37 % 1005,5 hPa 0,0 l/m 0,0 km/h S-SO 15,7 C 32,3 C 0,0 km/h
05.06.2011 16:00 34,5 C 32 % 1004,6 hPa 0,0 l/m 1,3 km/h SW 15,4 C 34,5 C 0,7 km/h
05.06.2011 17:00 29,1 C 41 % 1004,9 hPa 0,0 l/m 1,3 km/h S-SW 14,5 C 29,1 C 0,7 km/h
05.06.2011 18:00 24,8 C 49 % 1005,1 hPa 0,0 l/m 3,9 km/h W 13,3 C 24,8 C 2,2 km/h
05.06.2011 19:00 21,4 C 61 % 1004,9 hPa 0,0 l/m 0,0 km/h SW 13,6 C 21,4 C 0,0 km/h
05.06.2011 20:00 18,9 C 71 % 1005,2 hPa 0,0 l/m 0,0 km/h SO 13,5 C 18,9 C 0,0 km/h
05.06.2011 21:00 16,6 C 81 % 1004,9 hPa 0,0 l/m 0,0 km/h SO 13,3 C 16,6 C 0,0 km/h
05.06.2011 22:00 15,3 C 84 % 1005,5 hPa 0,0 l/m 0,0 km/h O-SO 12,6 C 15,3 C 0,0 km/h
05.06.2011 23:00 15,9 C 85 % 1005,0 hPa 0,0 l/m 0,0 km/h SO 13,4 C 15,9 C 0,0 km/h
Min-Datum _ 30.05.11 30.05.11 05.06.11 - 30.05.11 - 30.05.11 01.06.11 30.05.11
_ Min-Zeit 06:30 18:30 16:30 - 00:30 - 05:30 15:30 00:30
Minimum _ 9,1 C 22 % 1004,6 hPa - 0,0 km/h - 5,8 C 6,1 C 0,0 km/h
Max-Datum _ 30.05.11 01.06.11 01.06.11 31.05.11 31.05.11 - 04.06.11 30.05.11 31.05.11
_ Max-Zeit 18:30 06:30 22:30 17:30 12:30 - 19:30 18:30 12:30
Maximum _ 37,7 C 87 % 1024,8 hPa 2,1 l/m 31,1 km/h
W
- 18,3 C 37,7 C 17,3 km/h
W
Durchschnitt _ 19,5 C 64 % 1015,8 hPa #12,1 l/m 3,1 km/h N-NO 11,7 C 19,2 C 1,7 km/h
www.sexauwetter.de